Time;durP1;ratioP1;P1;durP2;ratioP2;P2;SDS_P1;SDS_P2;PMS_P1;PMS_P2;Temp;Humidity;BMP_temperature;BMP_pressure;BME280_temperature;BME280_humidity;BME280_pressure;Samples;Min_cycle;Max_cycle;Signal;HPM_P1;HPM_P2
2022/12/13 00:00:00;;;;;;;5.5;5.3;;;;;;;-4.3;100.0;101030;;;;
2022/12/13 00:01:08;;;;;;;5.5;5.3;;;;;;;-4.3;100.0;101030;;;;
2022/12/13 00:02:00;;;;;;;5.5;5.3;;;;;;;-4.3;100.0;101030;;;;
2022/12/13 00:03:00;;;;;;;5.5;5.3;;;;;;;-4.3;100.0;101020;;;;
2022/12/13 00:04:02;;;;;;;5.5;5.3;;;;;;;-4.3;100.0;101020;;;;
2022/12/13 00:05:00;;;;;;;5.5;5.3;;;;;;;-4.3;100.0;101020;;;;
2022/12/13 00:06:03;;;;;;;5.5;5.3;;;;;;;-4.3;100.0;101020;;;;
2022/12/13 00:07:00;;;;;;;5.5;5.3;;;;;;;-4.3;100.0;101020;;;;
2022/12/13 00:08:00;;;;;;;5.5;5.3;;;;;;;-4.3;100.0;101020;;;;
2022/12/13 00:09:00;;;;;;;5.5;5.3;;;;;;;-4.4;100.0;101020;;;;
2022/12/13 00:10:00;;;;;;;5.5;5.3;;;;;;;-4.4;100.0;101020;;;;
2022/12/13 00:11:01;;;;;;;5.5;5.3;;;;;;;-4.4;100.0;101030;;;;
2022/12/13 00:12:00;;;;;;;5.5;5.3;;;;;;;-4.4;100.0;101030;;;;
2022/12/13 00:13:00;;;;;;;5.5;5.3;;;;;;;-4.3;100.0;101020;;;;
2022/12/13 00:14:00;;;;;;;6.5;6.3;;;;;;;-4.3;100.0;101020;;;;
2022/12/13 00:15:00;;;;;;;6.5;6.3;;;;;;;-4.3;100.0;101020;;;;
2022/12/13 00:16:01;;;;;;;6.5;6.3;;;;;;;-4.3;100.0;101020;;;;
2022/12/13 00:17:00;;;;;;;6.5;6.3;;;;;;;-4.4;100.0;101020;;;;
2022/12/13 00:18:00;;;;;;;6.5;6.3;;;;;;;-4.4;100.0;101020;;;;
2022/12/13 00:19:00;;;;;;;6.5;6.3;;;;;;;-4.3;100.0;101020;;;;
2022/12/13 00:20:00;;;;;;;6.5;6.3;;;;;;;-4.3;100.0;101020;;;;
2022/12/13 00:21:03;;;;;;;6.5;6.3;;;;;;;-4.4;100.0;101020;;;;
2022/12/13 00:22:00;;;;;;;6.5;6.3;;;;;;;-4.4;100.0;101020;;;;
2022/12/13 00:23:00;;;;;;;6.5;6.3;;;;;;;-4.4;100.0;101020;;;;
2022/12/13 00:24:00;;;;;;;6.5;6.3;;;;;;;-4.4;100.0;101020;;;;
2022/12/13 00:25:00;;;;;;;6.5;6.3;;;;;;;-4.3;100.0;101020;;;;
2022/12/13 00:26:02;;;;;;;6.5;6.3;;;;;;;-4.3;100.0;101020;;;;
2022/12/13 00:27:00;;;;;;;6.5;6.3;;;;;;;-4.3;100.0;101010;;;;
2022/12/13 00:28:00;;;;;;;6.5;6.3;;;;;;;-4.3;100.0;101010;;;;
2022/12/13 00:29:01;;;;;;;6.5;6.3;;;;;;;-4.3;100.0;101010;;;;
2022/12/13 00:30:00;;;;;;;6.5;6.3;;;;;;;-4.3;100.0;101010;;;;
2022/12/13 00:31:10;;;;;;;6.5;6.3;;;;;;;-4.4;100.0;101010;;;;
2022/12/13 00:32:01;;;;;;;6.5;6.3;;;;;;;-4.4;100.0;101010;;;;
2022/12/13 00:33:00;;;;;;;6.5;6.3;;;;;;;-4.5;100.0;101010;;;;
2022/12/13 00:34:00;;;;;;;5.9;5.7;;;;;;;-4.5;100.0;101010;;;;
2022/12/13 00:35:00;;;;;;;5.9;5.7;;;;;;;-4.5;100.0;101020;;;;
2022/12/13 00:36:02;;;;;;;5.9;5.7;;;;;;;-4.5;100.0;101020;;;;
2022/12/13 00:37:00;;;;;;;5.9;5.7;;;;;;;-4.5;100.0;101010;;;;
2022/12/13 00:38:00;;;;;;;5.9;5.7;;;;;;;-4.5;100.0;101010;;;;
2022/12/13 00:39:01;;;;;;;5.9;5.7;;;;;;;-4.6;100.0;101010;;;;
2022/12/13 00:40:00;;;;;;;5.9;5.7;;;;;;;-4.6;100.0;101010;;;;
2022/12/13 00:41:08;;;;;;;5.9;5.7;;;;;;;-4.5;100.0;101010;;;;
2022/12/13 00:42:00;;;;;;;5.9;5.7;;;;;;;-4.5;100.0;101010;;;;
2022/12/13 00:43:00;;;;;;;5.9;5.7;;;;;;;-4.6;100.0;101000;;;;
2022/12/13 00:44:01;;;;;;;5.9;5.7;;;;;;;-4.6;100.0;101000;;;;
2022/12/13 00:45:00;;;;;;;5.9;5.7;;;;;;;-4.6;100.0;101010;;;;
2022/12/13 00:46:00;;;;;;;5.9;5.7;;;;;;;-4.6;100.0;101010;;;;
2022/12/13 00:47:00;;;;;;;5.9;5.7;;;;;;;-4.5;100.0;101000;;;;
2022/12/13 00:48:00;;;;;;;5.9;5.7;;;;;;;-4.5;100.0;101000;;;;
2022/12/13 00:49:00;;;;;;;5.9;5.7;;;;;;;-4.6;100.0;101010;;;;
2022/12/13 00:50:00;;;;;;;5.9;5.7;;;;;;;-4.6;100.0;101010;;;;
2022/12/13 00:51:04;;;;;;;5.9;5.7;;;;;;;-4.6;100.0;101010;;;;
2022/12/13 00:52:00;;;;;;;5.9;5.7;;;;;;;-4.6;100.0;101010;;;;
2022/12/13 00:53:01;;;;;;;5.5;5.3;;;;;;;-4.5;100.0;101010;;;;
2022/12/13 00:54:01;;;;;;;5.5;5.3;;;;;;;-4.5;100.0;101010;;;;
2022/12/13 00:55:00;;;;;;;5.5;5.3;;;;;;;-4.5;100.0;101010;;;;
2022/12/13 00:56:00;;;;;;;5.5;5.3;;;;;;;-4.5;100.0;101010;;;;
2022/12/13 00:57:00;;;;;;;5.5;5.3;;;;;;;-4.6;100.0;101000;;;;
2022/12/13 00:58:00;;;;;;;5.5;5.3;;;;;;;-4.6;100.0;101000;;;;
2022/12/13 00:59:00;;;;;;;5.5;5.3;;;;;;;-4.6;100.0;101000;;;;
2022/12/13 01:00:00;;;;;;;5.5;5.3;;;;;;;-4.6;100.0;101000;;;;
2022/12/13 01:01:04;;;;;;;5.5;5.3;;;;;;;-4.6;100.0;101000;;;;
2022/12/13 01:02:00;;;;;;;5.5;5.3;;;;;;;-4.6;100.0;101000;;;;
2022/12/13 01:03:19;;;;;;;5.5;5.3;;;;;;;-4.6;100.0;101010;;;;
2022/12/13 01:04:01;;;;;;;5.5;5.3;;;;;;;-4.6;100.0;101010;;;;
2022/12/13 01:05:00;;;;;;;5.5;5.3;;;;;;;-4.6;100.0;101000;;;;
2022/12/13 01:06:10;;;;;;;5.5;5.3;;;;;;;-4.6;100.0;101000;;;;
2022/12/13 01:07:00;;;;;;;5.5;5.3;;;;;;;-4.7;100.0;101000;;;;
2022/12/13 01:08:00;;;;;;;5.5;5.3;;;;;;;-4.7;100.0;101000;;;;
2022/12/13 01:09:00;;;;;;;5.5;5.3;;;;;;;-4.6;100.0;101000;;;;
2022/12/13 01:10:00;;;;;;;5.5;5.3;;;;;;;-4.6;100.0;101000;;;;
2022/12/13 01:11:00;;;;;;;5.5;5.3;;;;;;;-4.8;100.0;101000;;;;
2022/12/13 01:12:02;;;;;;;5.5;5.3;;;;;;;-4.8;100.0;101000;;;;
2022/12/13 01:13:00;;;;;;;5.7;5.5;;;;;;;-4.7;100.0;101000;;;;
2022/12/13 01:14:00;;;;;;;5.7;5.5;;;;;;;-4.7;100.0;101000;;;;
2022/12/13 01:15:00;;;;;;;5.7;5.5;;;;;;;-4.7;100.0;101000;;;;
2022/12/13 01:16:01;;;;;;;5.7;5.5;;;;;;;-4.7;100.0;101000;;;;
2022/12/13 01:17:00;;;;;;;5.7;5.5;;;;;;;-4.7;100.0;101010;;;;
2022/12/13 01:18:00;;;;;;;5.7;5.5;;;;;;;-4.7;100.0;101010;;;;
2022/12/13 01:19:00;;;;;;;5.7;5.5;;;;;;;-4.7;100.0;101010;;;;
2022/12/13 01:20:00;;;;;;;5.7;5.5;;;;;;;-4.7;100.0;101010;;;;
2022/12/13 01:21:03;;;;;;;5.7;5.5;;;;;;;-4.7;100.0;101010;;;;
2022/12/13 01:22:02;;;;;;;5.7;5.5;;;;;;;-4.7;100.0;101010;;;;
2022/12/13 01:23:00;;;;;;;5.7;5.5;;;;;;;-4.8;100.0;101000;;;;
2022/12/13 01:24:02;;;;;;;5.7;5.5;;;;;;;-4.8;100.0;101000;;;;
2022/12/13 01:25:00;;;;;;;5.7;5.5;;;;;;;-4.8;100.0;101000;;;;
2022/12/13 01:26:04;;;;;;;5.7;5.5;;;;;;;-4.8;100.0;101000;;;;
2022/12/13 01:27:00;;;;;;;5.7;5.5;;;;;;;-4.8;100.0;101010;;;;
2022/12/13 01:28:00;;;;;;;5.7;5.5;;;;;;;-4.8;100.0;101010;;;;
2022/12/13 01:29:00;;;;;;;5.7;5.5;;;;;;;-4.7;100.0;101010;;;;
2022/12/13 01:30:00;;;;;;;5.7;5.5;;;;;;;-4.7;100.0;101010;;;;
2022/12/13 01:31:02;;;;;;;5.7;5.5;;;;;;;-4.8;100.0;101010;;;;
2022/12/13 01:32:00;;;;;;;5.7;5.5;;;;;;;-4.8;100.0;101010;;;;
2022/12/13 01:33:00;;;;;;;6.6;6.3;;;;;;;-4.8;100.0;101010;;;;
2022/12/13 01:34:09;;;;;;;6.6;6.3;;;;;;;-4.8;100.0;101010;;;;
2022/12/13 01:35:00;;;;;;;6.6;6.3;;;;;;;-4.8;100.0;101000;;;;
2022/12/13 01:36:01;;;;;;;6.6;6.3;;;;;;;-4.8;100.0;101000;;;;
2022/12/13 01:37:00;;;;;;;6.6;6.3;;;;;;;-4.8;100.0;101000;;;;
2022/12/13 01:38:00;;;;;;;6.6;6.3;;;;;;;-4.8;100.0;101000;;;;
2022/12/13 01:39:00;;;;;;;6.6;6.3;;;;;;;-4.8;100.0;101000;;;;
2022/12/13 01:40:00;;;;;;;6.6;6.3;;;;;;;-4.8;100.0;101000;;;;
2022/12/13 01:41:00;;;;;;;6.6;6.3;;;;;;;-4.8;100.0;101010;;;;
2022/12/13 01:42:02;;;;;;;6.6;6.3;;;;;;;-4.8;100.0;101010;;;;
2022/12/13 01:43:01;;;;;;;6.6;6.3;;;;;;;-4.8;100.0;101000;;;;
2022/12/13 01:44:02;;;;;;;6.6;6.3;;;;;;;-4.8;100.0;101000;;;;
2022/12/13 01:45:02;;;;;;;6.6;6.3;;;;;;;-4.8;100.0;101010;;;;
2022/12/13 01:46:00;;;;;;;6.6;6.3;;;;;;;-4.8;100.0;101010;;;;
2022/12/13 01:47:00;;;;;;;6.6;6.3;;;;;;;-4.9;100.0;101010;;;;
2022/12/13 01:48:02;;;;;;;6.6;6.3;;;;;;;-4.9;100.0;101010;;;;
2022/12/13 01:49:00;;;;;;;6.6;6.3;;;;;;;-4.9;100.0;101000;;;;
2022/12/13 01:50:02;;;;;;;6.6;6.3;;;;;;;-4.9;100.0;101000;;;;
2022/12/13 01:51:01;;;;;;;6.6;6.3;;;;;;;-4.8;100.0;101000;;;;
2022/12/13 01:52:04;;;;;;;6.6;6.3;;;;;;;-4.8;100.0;101000;;;;
2022/12/13 01:53:00;;;;;;;5.7;5.5;;;;;;;-4.8;100.0;101000;;;;
2022/12/13 01:54:02;;;;;;;5.7;5.5;;;;;;;-4.8;100.0;101000;;;;
2022/12/13 01:55:12;;;;;;;5.7;5.5;;;;;;;-4.9;100.0;101010;;;;
2022/12/13 01:56:03;;;;;;;5.7;5.5;;;;;;;-4.9;100.0;101010;;;;
2022/12/13 01:57:02;;;;;;;5.7;5.5;;;;;;;-4.9;100.0;101010;;;;
2022/12/13 01:58:01;;;;;;;5.7;5.5;;;;;;;-4.9;100.0;101010;;;;
2022/12/13 01:59:00;;;;;;;5.7;5.5;;;;;;;-4.9;100.0;101010;;;;
2022/12/13 02:00:00;;;;;;;5.7;5.5;;;;;;;-4.9;100.0;101010;;;;
2022/12/13 02:01:00;;;;;;;5.7;5.5;;;;;;;-4.9;100.0;101000;;;;
2022/12/13 02:02:01;;;;;;;5.7;5.5;;;;;;;-4.9;100.0;101000;;;;
2022/12/13 02:03:00;;;;;;;5.7;5.5;;;;;;;-4.9;100.0;101010;;;;
2022/12/13 02:04:00;;;;;;;5.7;5.5;;;;;;;-4.9;100.0;101010;;;;
2022/12/13 02:05:04;;;;;;;5.7;5.5;;;;;;;-4.9;100.0;101010;;;;
2022/12/13 02:06:03;;;;;;;5.7;5.5;;;;;;;-4.9;100.0;101010;;;;
2022/12/13 02:07:00;;;;;;;5.7;5.5;;;;;;;-4.9;100.0;101010;;;;
2022/12/13 02:08:01;;;;;;;5.7;5.5;;;;;;;-4.9;100.0;101010;;;;
2022/12/13 02:09:01;;;;;;;5.7;5.5;;;;;;;-4.9;100.0;101000;;;;
2022/12/13 02:10:01;;;;;;;5.7;5.5;;;;;;;-4.9;100.0;101000;;;;
2022/12/13 02:11:02;;;;;;;5.7;5.5;;;;;;;-5.0;100.0;101000;;;;
2022/12/13 02:12:01;;;;;;;5.7;5.5;;;;;;;-5.0;100.0;101000;;;;
2022/12/13 02:13:00;;;;;;;6.1;5.9;;;;;;;-5.0;100.0;101000;;;;
2022/12/13 02:14:00;;;;;;;6.1;5.9;;;;;;;-5.0;100.0;101000;;;;
2022/12/13 02:15:03;;;;;;;6.1;5.9;;;;;;;-5.1;100.0;101000;;;;
2022/12/13 02:16:00;;;;;;;6.1;5.9;;;;;;;-5.1;100.0;101000;;;;
2022/12/13 02:17:07;;;;;;;6.1;5.9;;;;;;;-5.1;100.0;101000;;;;
2022/12/13 02:18:10;;;;;;;6.1;5.9;;;;;;;-5.1;100.0;101000;;;;
2022/12/13 02:19:10;;;;;;;6.1;5.9;;;;;;;-5.1;100.0;101000;;;;
2022/12/13 02:20:03;;;;;;;6.1;5.9;;;;;;;-5.1;100.0;101000;;;;
2022/12/13 02:21:00;;;;;;;6.1;5.9;;;;;;;-5.0;100.0;101010;;;;
2022/12/13 02:22:10;;;;;;;6.1;5.9;;;;;;;-5.0;100.0;101010;;;;
2022/12/13 02:23:10;;;;;;;6.1;5.9;;;;;;;-5.1;100.0;101000;;;;
2022/12/13 02:24:10;;;;;;;6.1;5.9;;;;;;;-5.1;100.0;101000;;;;
2022/12/13 02:25:10;;;;;;;6.1;5.9;;;;;;;-5.1;100.0;101000;;;;
2022/12/13 02:26:10;;;;;;;6.1;5.9;;;;;;;-5.1;100.0;101000;;;;
2022/12/13 02:27:10;;;;;;;6.1;5.9;;;;;;;-5.1;100.0;101000;;;;
2022/12/13 02:28:20;;;;;;;6.1;5.9;;;;;;;-5.1;100.0;101000;;;;
2022/12/13 02:29:08;;;;;;;6.1;5.9;;;;;;;-5.0;100.0;101000;;;;
2022/12/13 02:30:00;;;;;;;6.1;5.9;;;;;;;-5.0;100.0;101000;;;;
2022/12/13 02:31:08;;;;;;;6.1;5.9;;;;;;;-5.1;100.0;101010;;;;
2022/12/13 02:32:07;;;;;;;6.1;5.9;;;;;;;-5.1;100.0;101010;;;;
2022/12/13 02:33:00;;;;;;;6.2;6.0;;;;;;;-5.1;100.0;101000;;;;
2022/12/13 02:34:10;;;;;;;6.2;6.0;;;;;;;-5.1;100.0;101000;;;;
2022/12/13 02:35:10;;;;;;;6.2;6.0;;;;;;;-5.1;100.0;101000;;;;
2022/12/13 02:36:00;;;;;;;6.2;6.0;;;;;;;-5.1;100.0;101000;;;;
2022/12/13 02:37:03;;;;;;;6.2;6.0;;;;;;;-5.1;100.0;101000;;;;
2022/12/13 02:38:01;;;;;;;6.2;6.0;;;;;;;-5.1;100.0;101000;;;;
2022/12/13 02:39:04;;;;;;;6.2;6.0;;;;;;;-5.1;100.0;101000;;;;
2022/12/13 02:40:06;;;;;;;6.2;6.0;;;;;;;-5.1;100.0;101000;;;;
2022/12/13 02:41:10;;;;;;;6.2;6.0;;;;;;;-5.1;100.0;100990;;;;
2022/12/13 02:42:04;;;;;;;6.2;6.0;;;;;;;-5.1;100.0;100990;;;;
2022/12/13 02:43:06;;;;;;;6.2;6.0;;;;;;;-5.1;100.0;100990;;;;
2022/12/13 02:44:15;;;;;;;6.2;6.0;;;;;;;-5.1;100.0;100990;;;;
2022/12/13 02:45:04;;;;;;;6.2;6.0;;;;;;;-5.1;100.0;100990;;;;
2022/12/13 02:46:02;;;;;;;6.2;6.0;;;;;;;-5.1;100.0;100990;;;;
2022/12/13 02:47:04;;;;;;;6.2;6.0;;;;;;;-5.1;100.0;100990;;;;
2022/12/13 02:48:02;;;;;;;6.2;6.0;;;;;;;-5.1;100.0;100990;;;;
2022/12/13 02:49:01;;;;;;;6.2;6.0;;;;;;;-5.1;100.0;100990;;;;
2022/12/13 02:50:03;;;;;;;6.2;6.0;;;;;;;-5.1;100.0;100990;;;;
2022/12/13 02:51:01;;;;;;;6.2;6.0;;;;;;;-5.1;100.0;100980;;;;
2022/12/13 02:52:00;;;;;;;6.2;6.0;;;;;;;-5.1;100.0;100980;;;;
2022/12/13 02:53:00;;;;;;;6.3;6.1;;;;;;;-5.1;100.0;100990;;;;
2022/12/13 02:54:03;;;;;;;6.3;6.1;;;;;;;-5.1;100.0;100990;;;;
2022/12/13 02:55:05;;;;;;;6.3;6.1;;;;;;;-5.2;100.0;100980;;;;
2022/12/13 02:56:00;;;;;;;6.3;6.1;;;;;;;-5.2;100.0;100980;;;;
2022/12/13 02:57:00;;;;;;;6.3;6.1;;;;;;;-5.2;100.0;100980;;;;
2022/12/13 02:58:00;;;;;;;6.3;6.1;;;;;;;-5.2;100.0;100980;;;;
2022/12/13 02:59:02;;;;;;;6.3;6.1;;;;;;;-5.2;100.0;100980;;;;
2022/12/13 03:00:02;;;;;;;6.3;6.1;;;;;;;-5.2;100.0;100980;;;;
2022/12/13 03:01:20;;;;;;;6.3;6.1;;;;;;;-5.1;100.0;100980;;;;
2022/12/13 03:02:10;;;;;;;6.3;6.1;;;;;;;-5.1;100.0;100980;;;;
2022/12/13 03:03:01;;;;;;;6.3;6.1;;;;;;;-5.0;100.0;100980;;;;
2022/12/13 03:04:10;;;;;;;6.3;6.1;;;;;;;-5.0;100.0;100980;;;;
2022/12/13 03:07:10;;;;;;;6.3;6.1;;;;;;;-5.1;100.0;100980;;;;
2022/12/13 03:08:10;;;;;;;6.3;6.1;;;;;;;-5.1;100.0;100980;;;;
2022/12/13 03:09:10;;;;;;;6.3;6.1;;;;;;;-5.1;100.0;100980;;;;
2022/12/13 03:10:05;;;;;;;6.3;6.1;;;;;;;-5.1;100.0;100980;;;;
2022/12/13 03:11:00;;;;;;;6.3;6.1;;;;;;;-5.1;100.0;100980;;;;
2022/12/13 03:14:05;;;;;;;5.5;5.3;;;;;;;-5.1;100.0;100980;;;;
2022/12/13 03:15:10;;;;;;;5.5;5.3;;;;;;;-5.1;100.0;100970;;;;
2022/12/13 03:16:04;;;;;;;5.5;5.3;;;;;;;-5.1;100.0;100970;;;;
2022/12/13 03:17:02;;;;;;;5.5;5.3;;;;;;;-5.0;100.0;100980;;;;
2022/12/13 03:18:04;;;;;;;5.5;5.3;;;;;;;-5.0;100.0;100980;;;;
2022/12/13 03:19:01;;;;;;;5.5;5.3;;;;;;;-5.0;100.0;100970;;;;
2022/12/13 03:20:01;;;;;;;5.5;5.3;;;;;;;-5.0;100.0;100970;;;;
2022/12/13 03:21:02;;;;;;;5.5;5.3;;;;;;;-5.0;100.0;100970;;;;
2022/12/13 03:22:04;;;;;;;5.5;5.3;;;;;;;-5.0;100.0;100970;;;;
2022/12/13 03:23:00;;;;;;;5.5;5.3;;;;;;;-5.1;100.0;100970;;;;
2022/12/13 03:24:00;;;;;;;5.5;5.3;;;;;;;-5.1;100.0;100970;;;;
2022/12/13 03:25:00;;;;;;;5.5;5.3;;;;;;;-5.1;100.0;100970;;;;
2022/12/13 03:26:04;;;;;;;5.5;5.3;;;;;;;-5.1;100.0;100970;;;;
2022/12/13 03:27:00;;;;;;;5.5;5.3;;;;;;;-4.9;100.0;100970;;;;
2022/12/13 03:28:02;;;;;;;5.5;5.3;;;;;;;-4.9;100.0;100970;;;;
2022/12/13 03:29:00;;;;;;;5.5;5.3;;;;;;;-5.0;100.0;100970;;;;
2022/12/13 03:30:00;;;;;;;5.5;5.3;;;;;;;-5.0;100.0;100970;;;;
2022/12/13 03:31:00;;;;;;;5.5;5.3;;;;;;;-5.1;100.0;100970;;;;
2022/12/13 03:32:00;;;;;;;5.5;5.3;;;;;;;-5.1;100.0;100970;;;;
2022/12/13 03:33:00;;;;;;;5.7;5.5;;;;;;;-5.0;100.0;100970;;;;
2022/12/13 03:34:00;;;;;;;5.7;5.5;;;;;;;-5.0;100.0;100970;;;;
2022/12/13 03:35:01;;;;;;;5.7;5.5;;;;;;;-5.1;100.0;100970;;;;
2022/12/13 03:36:00;;;;;;;5.7;5.5;;;;;;;-5.1;100.0;100970;;;;
2022/12/13 03:37:01;;;;;;;5.7;5.5;;;;;;;-5.0;100.0;100980;;;;
2022/12/13 03:38:00;;;;;;;5.7;5.5;;;;;;;-5.0;100.0;100980;;;;
2022/12/13 03:39:00;;;;;;;5.7;5.5;;;;;;;-5.0;100.0;100980;;;;
2022/12/13 03:40:00;;;;;;;5.7;5.5;;;;;;;-5.0;100.0;100980;;;;
2022/12/13 03:41:02;;;;;;;5.7;5.5;;;;;;;-5.1;100.0;100980;;;;
2022/12/13 03:42:00;;;;;;;5.7;5.5;;;;;;;-5.1;100.0;100980;;;;
2022/12/13 03:43:00;;;;;;;5.7;5.5;;;;;;;-5.1;100.0;100980;;;;
2022/12/13 03:44:04;;;;;;;5.7;5.5;;;;;;;-5.1;100.0;100980;;;;
2022/12/13 03:45:00;;;;;;;5.7;5.5;;;;;;;-5.1;100.0;100980;;;;
2022/12/13 03:46:00;;;;;;;5.7;5.5;;;;;;;-5.1;100.0;100980;;;;
2022/12/13 03:47:01;;;;;;;5.7;5.5;;;;;;;-5.1;100.0;100980;;;;
2022/12/13 03:48:00;;;;;;;5.7;5.5;;;;;;;-5.1;100.0;100980;;;;
2022/12/13 03:49:00;;;;;;;5.7;5.5;;;;;;;-5.1;100.0;100980;;;;
2022/12/13 03:50:10;;;;;;;5.7;5.5;;;;;;;-5.1;100.0;100980;;;;
2022/12/13 03:51:00;;;;;;;5.7;5.5;;;;;;;-5.1;100.0;100980;;;;
2022/12/13 03:52:00;;;;;;;5.5;5.3;;;;;;;-5.1;100.0;100980;;;;
2022/12/13 03:53:01;;;;;;;5.5;5.3;;;;;;;-5.1;100.0;100970;;;;
2022/12/13 03:54:00;;;;;;;5.5;5.3;;;;;;;-5.1;100.0;100970;;;;
2022/12/13 03:55:00;;;;;;;5.5;5.3;;;;;;;-5.2;100.0;100970;;;;
2022/12/13 03:56:01;;;;;;;5.5;5.3;;;;;;;-5.2;100.0;100970;;;;
2022/12/13 03:57:00;;;;;;;5.5;5.3;;;;;;;-5.2;100.0;100980;;;;
2022/12/13 03:58:07;;;;;;;5.5;5.3;;;;;;;-5.2;100.0;100980;;;;
2022/12/13 03:59:01;;;;;;;5.5;5.3;;;;;;;-5.2;100.0;100980;;;;
2022/12/13 04:00:00;;;;;;;5.5;5.3;;;;;;;-5.2;100.0;100980;;;;
2022/12/13 04:01:01;;;;;;;5.5;5.3;;;;;;;-5.2;100.0;100980;;;;
2022/12/13 04:02:00;;;;;;;5.5;5.3;;;;;;;-5.2;100.0;100980;;;;
2022/12/13 04:03:00;;;;;;;5.5;5.3;;;;;;;-5.2;100.0;100980;;;;
2022/12/13 04:04:00;;;;;;;5.5;5.3;;;;;;;-5.2;100.0;100980;;;;
2022/12/13 04:05:10;;;;;;;5.5;5.3;;;;;;;-5.2;100.0;100970;;;;
2022/12/13 04:06:00;;;;;;;5.5;5.3;;;;;;;-5.2;100.0;100970;;;;
2022/12/13 04:07:00;;;;;;;5.5;5.3;;;;;;;-5.2;100.0;100970;;;;
2022/12/13 04:08:01;;;;;;;5.5;5.3;;;;;;;-5.2;100.0;100970;;;;
2022/12/13 04:09:00;;;;;;;5.5;5.3;;;;;;;-5.2;100.0;100970;;;;
2022/12/13 04:10:00;;;;;;;5.5;5.3;;;;;;;-5.2;100.0;100970;;;;
2022/12/13 04:13:31;;;;;;;5.5;5.3;;;;;;;-5.2;100.0;100970;;;;
2022/12/13 04:14:00;;;;;;;6.2;6.0;;;;;;;-5.2;100.0;100970;;;;
2022/12/13 04:15:00;;;;;;;6.2;6.0;;;;;;;-5.2;100.0;100970;;;;
2022/12/13 04:16:01;;;;;;;6.2;6.0;;;;;;;-5.2;100.0;100970;;;;
2022/12/13 04:17:00;;;;;;;6.2;6.0;;;;;;;-5.2;100.0;100970;;;;
2022/12/13 04:18:00;;;;;;;6.2;6.0;;;;;;;-5.2;100.0;100970;;;;
2022/12/13 04:19:00;;;;;;;6.2;6.0;;;;;;;-5.3;100.0;100970;;;;
2022/12/13 04:20:00;;;;;;;6.2;6.0;;;;;;;-5.3;100.0;100970;;;;
2022/12/13 04:21:00;;;;;;;6.2;6.0;;;;;;;-5.3;100.0;100970;;;;
2022/12/13 04:22:00;;;;;;;6.2;6.0;;;;;;;-5.3;100.0;100970;;;;
2022/12/13 04:23:00;;;;;;;6.2;6.0;;;;;;;-5.1;100.0;100970;;;;
2022/12/13 04:24:01;;;;;;;6.2;6.0;;;;;;;-5.1;100.0;100970;;;;
2022/12/13 04:25:00;;;;;;;6.2;6.0;;;;;;;-5.1;100.0;100960;;;;
2022/12/13 04:26:00;;;;;;;6.2;6.0;;;;;;;-5.1;100.0;100960;;;;
2022/12/13 04:27:01;;;;;;;6.2;6.0;;;;;;;-5.1;100.0;100960;;;;
2022/12/13 04:28:00;;;;;;;6.2;6.0;;;;;;;-5.1;100.0;100960;;;;
2022/12/13 04:29:00;;;;;;;6.2;6.0;;;;;;;-5.2;100.0;100960;;;;
2022/12/13 04:30:00;;;;;;;6.2;6.0;;;;;;;-5.2;100.0;100960;;;;
2022/12/13 04:31:00;;;;;;;6.2;6.0;;;;;;;-5.3;100.0;100960;;;;
2022/12/13 04:32:00;;;;;;;5.7;5.5;;;;;;;-5.3;100.0;100960;;;;
2022/12/13 04:33:00;;;;;;;5.7;5.5;;;;;;;-5.2;100.0;100960;;;;
2022/12/13 04:34:00;;;;;;;5.7;5.5;;;;;;;-5.2;100.0;100960;;;;
2022/12/13 04:35:01;;;;;;;5.7;5.5;;;;;;;-5.3;100.0;100950;;;;
2022/12/13 04:36:00;;;;;;;5.7;5.5;;;;;;;-5.3;100.0;100950;;;;
2022/12/13 04:37:00;;;;;;;5.7;5.5;;;;;;;-5.3;100.0;100950;;;;
2022/12/13 04:38:00;;;;;;;5.7;5.5;;;;;;;-5.3;100.0;100950;;;;
2022/12/13 04:39:01;;;;;;;5.7;5.5;;;;;;;-5.3;100.0;100950;;;;
2022/12/13 04:40:01;;;;;;;5.7;5.5;;;;;;;-5.3;100.0;100950;;;;
2022/12/13 04:41:04;;;;;;;5.7;5.5;;;;;;;-5.2;100.0;100950;;;;
2022/12/13 04:42:00;;;;;;;5.7;5.5;;;;;;;-5.2;100.0;100950;;;;
2022/12/13 04:43:00;;;;;;;5.7;5.5;;;;;;;-5.2;100.0;100960;;;;
2022/12/13 04:44:00;;;;;;;5.7;5.5;;;;;;;-5.2;100.0;100960;;;;
2022/12/13 04:45:00;;;;;;;5.7;5.5;;;;;;;-5.3;100.0;100950;;;;
2022/12/13 04:46:00;;;;;;;5.7;5.5;;;;;;;-5.3;100.0;100950;;;;
2022/12/13 04:47:01;;;;;;;5.7;5.5;;;;;;;-5.2;100.0;100950;;;;
2022/12/13 04:48:00;;;;;;;5.7;5.5;;;;;;;-5.2;100.0;100950;;;;
2022/12/13 04:49:00;;;;;;;5.7;5.5;;;;;;;-5.2;100.0;100950;;;;
2022/12/13 04:50:00;;;;;;;5.7;5.5;;;;;;;-5.2;100.0;100950;;;;
2022/12/13 04:51:01;;;;;;;5.7;5.5;;;;;;;-5.3;100.0;100950;;;;
2022/12/13 04:52:02;;;;;;;6.0;5.8;;;;;;;-5.3;100.0;100950;;;;
2022/12/13 04:53:00;;;;;;;6.0;5.8;;;;;;;-5.2;100.0;100950;;;;
2022/12/13 04:54:10;;;;;;;6.0;5.8;;;;;;;-5.2;100.0;100950;;;;
2022/12/13 04:55:00;;;;;;;6.0;5.8;;;;;;;-5.2;100.0;100950;;;;
2022/12/13 04:56:01;;;;;;;6.0;5.8;;;;;;;-5.2;100.0;100950;;;;
2022/12/13 04:57:01;;;;;;;6.0;5.8;;;;;;;-5.3;100.0;100950;;;;
2022/12/13 04:58:00;;;;;;;6.0;5.8;;;;;;;-5.3;100.0;100950;;;;
2022/12/13 04:59:00;;;;;;;6.0;5.8;;;;;;;-5.2;100.0;100950;;;;
2022/12/13 05:00:00;;;;;;;6.0;5.8;;;;;;;-5.2;100.0;100950;;;;
2022/12/13 05:01:01;;;;;;;6.0;5.8;;;;;;;-5.3;100.0;100950;;;;
2022/12/13 05:02:00;;;;;;;6.0;5.8;;;;;;;-5.3;100.0;100950;;;;
2022/12/13 05:03:00;;;;;;;6.0;5.8;;;;;;;-5.2;100.0;100950;;;;
2022/12/13 05:04:01;;;;;;;6.0;5.8;;;;;;;-5.2;100.0;100950;;;;
2022/12/13 05:05:00;;;;;;;6.0;5.8;;;;;;;-5.3;100.0;100950;;;;
2022/12/13 05:06:03;;;;;;;6.0;5.8;;;;;;;-5.3;100.0;100950;;;;
2022/12/13 05:07:01;;;;;;;6.0;5.8;;;;;;;-5.3;100.0;100950;;;;
2022/12/13 05:08:00;;;;;;;6.0;5.8;;;;;;;-5.3;100.0;100950;;;;
2022/12/13 05:09:01;;;;;;;6.0;5.8;;;;;;;-5.2;100.0;100950;;;;
2022/12/13 05:10:00;;;;;;;6.0;5.8;;;;;;;-5.2;100.0;100950;;;;
2022/12/13 05:11:00;;;;;;;6.0;5.8;;;;;;;-5.1;100.0;100950;;;;
2022/12/13 05:12:01;;;;;;;5.9;5.7;;;;;;;-5.1;100.0;100950;;;;
2022/12/13 05:13:01;;;;;;;5.9;5.7;;;;;;;-5.1;100.0;100960;;;;
2022/12/13 05:14:00;;;;;;;5.9;5.7;;;;;;;-5.1;100.0;100960;;;;
2022/12/13 05:15:00;;;;;;;5.9;5.7;;;;;;;-5.1;100.0;100950;;;;
2022/12/13 05:16:01;;;;;;;5.9;5.7;;;;;;;-5.1;100.0;100950;;;;
2022/12/13 05:17:01;;;;;;;5.9;5.7;;;;;;;-5.0;100.0;100950;;;;
2022/12/13 05:18:10;;;;;;;5.9;5.7;;;;;;;-5.0;100.0;100950;;;;
2022/12/13 05:19:00;;;;;;;5.9;5.7;;;;;;;-5.0;100.0;100940;;;;
2022/12/13 05:20:00;;;;;;;5.9;5.7;;;;;;;-5.0;100.0;100940;;;;
2022/12/13 05:21:01;;;;;;;5.9;5.7;;;;;;;-5.1;100.0;100940;;;;
2022/12/13 05:22:02;;;;;;;5.9;5.7;;;;;;;-5.1;100.0;100940;;;;
2022/12/13 05:23:00;;;;;;;5.9;5.7;;;;;;;-5.0;100.0;100940;;;;
2022/12/13 05:24:01;;;;;;;5.9;5.7;;;;;;;-5.0;100.0;100940;;;;
2022/12/13 05:25:00;;;;;;;5.9;5.7;;;;;;;-5.1;100.0;100940;;;;
2022/12/13 05:26:00;;;;;;;5.9;5.7;;;;;;;-5.1;100.0;100940;;;;
2022/12/13 05:27:00;;;;;;;5.9;5.7;;;;;;;-5.1;100.0;100940;;;;
2022/12/13 05:28:09;;;;;;;5.9;5.7;;;;;;;-5.1;100.0;100940;;;;
2022/12/13 05:29:00;;;;;;;5.9;5.7;;;;;;;-4.9;100.0;100940;;;;
2022/12/13 05:30:04;;;;;;;5.9;5.7;;;;;;;-4.9;100.0;100940;;;;
2022/12/13 05:31:18;;;;;;;5.9;5.7;;;;;;;-5.0;100.0;100940;;;;
2022/12/13 05:32:00;;;;;;;5.3;5.2;;;;;;;-5.0;100.0;100940;;;;
2022/12/13 05:33:00;;;;;;;5.3;5.2;;;;;;;-4.9;100.0;100940;;;;
2022/12/13 05:34:01;;;;;;;5.3;5.2;;;;;;;-4.9;100.0;100940;;;;
2022/12/13 05:35:00;;;;;;;5.3;5.2;;;;;;;-5.0;100.0;100930;;;;
2022/12/13 05:36:02;;;;;;;5.3;5.2;;;;;;;-5.0;100.0;100930;;;;
2022/12/13 05:37:00;;;;;;;5.3;5.2;;;;;;;-5.1;100.0;100930;;;;
2022/12/13 05:38:00;;;;;;;5.3;5.2;;;;;;;-5.1;100.0;100930;;;;
2022/12/13 05:39:00;;;;;;;5.3;5.2;;;;;;;-5.1;100.0;100930;;;;
2022/12/13 05:40:00;;;;;;;5.3;5.2;;;;;;;-5.1;100.0;100930;;;;
2022/12/13 05:41:00;;;;;;;5.3;5.2;;;;;;;-5.1;100.0;100930;;;;
2022/12/13 05:42:02;;;;;;;5.3;5.2;;;;;;;-5.1;100.0;100930;;;;
2022/12/13 05:43:01;;;;;;;5.3;5.2;;;;;;;-5.0;100.0;100920;;;;
2022/12/13 05:44:00;;;;;;;5.3;5.2;;;;;;;-5.0;100.0;100920;;;;
2022/12/13 05:45:00;;;;;;;5.3;5.2;;;;;;;-5.1;100.0;100930;;;;
2022/12/13 05:46:00;;;;;;;5.3;5.2;;;;;;;-5.1;100.0;100930;;;;
2022/12/13 05:47:03;;;;;;;5.3;5.2;;;;;;;-4.9;100.0;100920;;;;
2022/12/13 05:48:00;;;;;;;5.3;5.2;;;;;;;-4.9;100.0;100920;;;;
2022/12/13 05:49:00;;;;;;;5.3;5.2;;;;;;;-5.1;100.0;100920;;;;
2022/12/13 05:50:00;;;;;;;5.3;5.2;;;;;;;-5.1;100.0;100920;;;;
2022/12/13 05:51:10;;;;;;;5.3;5.2;;;;;;;-5.1;100.0;100910;;;;
2022/12/13 05:52:00;;;;;;;6.7;6.4;;;;;;;-5.1;100.0;100910;;;;
2022/12/13 05:53:01;;;;;;;6.7;6.4;;;;;;;-5.1;100.0;100920;;;;
2022/12/13 05:54:00;;;;;;;6.7;6.4;;;;;;;-5.1;100.0;100920;;;;
2022/12/13 05:55:01;;;;;;;6.7;6.4;;;;;;;-5.2;100.0;100920;;;;
2022/12/13 05:56:01;;;;;;;6.7;6.4;;;;;;;-5.2;100.0;100920;;;;
2022/12/13 05:57:00;;;;;;;6.7;6.4;;;;;;;-5.1;100.0;100920;;;;
2022/12/13 05:58:02;;;;;;;6.7;6.4;;;;;;;-5.1;100.0;100920;;;;
2022/12/13 05:59:00;;;;;;;6.7;6.4;;;;;;;-5.1;100.0;100910;;;;
2022/12/13 06:00:00;;;;;;;6.7;6.4;;;;;;;-5.1;100.0;100910;;;;
2022/12/13 06:01:04;;;;;;;6.7;6.4;;;;;;;-5.2;100.0;100910;;;;
2022/12/13 06:02:00;;;;;;;6.7;6.4;;;;;;;-5.2;100.0;100910;;;;
2022/12/13 06:03:02;;;;;;;6.7;6.4;;;;;;;-5.1;100.0;100910;;;;
2022/12/13 06:04:00;;;;;;;6.7;6.4;;;;;;;-5.1;100.0;100910;;;;
2022/12/13 06:05:00;;;;;;;6.7;6.4;;;;;;;-5.2;100.0;100910;;;;
2022/12/13 06:06:00;;;;;;;6.7;6.4;;;;;;;-5.2;100.0;100910;;;;
2022/12/13 06:07:01;;;;;;;6.7;6.4;;;;;;;-5.2;100.0;100910;;;;
2022/12/13 06:08:00;;;;;;;6.7;6.4;;;;;;;-5.2;100.0;100910;;;;
2022/12/13 06:09:00;;;;;;;6.7;6.4;;;;;;;-5.2;100.0;100910;;;;
2022/12/13 06:10:10;;;;;;;6.7;6.4;;;;;;;-5.2;100.0;100910;;;;
2022/12/13 06:11:10;;;;;;;6.4;6.2;;;;;;;-5.3;100.0;100920;;;;
2022/12/13 06:12:01;;;;;;;6.4;6.2;;;;;;;-5.3;100.0;100920;;;;
2022/12/13 06:13:01;;;;;;;6.4;6.2;;;;;;;-5.2;100.0;100910;;;;
2022/12/13 06:14:01;;;;;;;6.4;6.2;;;;;;;-5.2;100.0;100910;;;;
2022/12/13 06:15:10;;;;;;;6.4;6.2;;;;;;;-5.2;100.0;100920;;;;
2022/12/13 06:16:02;;;;;;;6.4;6.2;;;;;;;-5.2;100.0;100920;;;;
2022/12/13 06:17:00;;;;;;;6.4;6.2;;;;;;;-5.3;100.0;100920;;;;
2022/12/13 06:18:00;;;;;;;6.4;6.2;;;;;;;-5.3;100.0;100920;;;;
2022/12/13 06:19:04;;;;;;;6.4;6.2;;;;;;;-5.3;100.0;100920;;;;
2022/12/13 06:20:00;;;;;;;6.4;6.2;;;;;;;-5.3;100.0;100920;;;;
2022/12/13 06:21:02;;;;;;;6.4;6.2;;;;;;;-5.4;100.0;100920;;;;
2022/12/13 06:22:00;;;;;;;6.4;6.2;;;;;;;-5.4;100.0;100920;;;;
2022/12/13 06:23:00;;;;;;;6.4;6.2;;;;;;;-5.4;100.0;100920;;;;
2022/12/13 06:24:00;;;;;;;6.4;6.2;;;;;;;-5.4;100.0;100920;;;;
2022/12/13 06:25:00;;;;;;;6.4;6.2;;;;;;;-5.4;100.0;100920;;;;
2022/12/13 06:26:02;;;;;;;6.4;6.2;;;;;;;-5.4;100.0;100920;;;;
2022/12/13 06:27:00;;;;;;;6.4;6.2;;;;;;;-5.3;100.0;100920;;;;
2022/12/13 06:28:02;;;;;;;6.4;6.2;;;;;;;-5.3;100.0;100920;;;;